Terminal Aerodrome Forecast
Issued by NWS

Home | Current Version | Previous Version | Text Only | Print | Product List | Glossary On
Versions: 1 2 3 4 5 6 7 8 9 10 11 12 13 14 15
000
FTUS44 KBMX 230540
TAFANB
TAF
KANB 230540Z 2306/2406 13010G20KT P6SM -RA SCT060 OVC100
      WS020/14045KT
     FM230630 19010KT P6SM OVC015 WS020/19045KT
      TEMPO 2308/2310 5SM BR OVC009
     FM231000 19008KT 3SM BR OVC007
     FM231500 20008KT 6SM -DZ OVC015
     FM231800 22010KT P6SM VCSH OVC050
     FM240000 26003KT P6SM OVC050=

USA.gov is the U.S. government's official web portal to all federal, state and local government web resources and services.